Time;durP1;ratioP1;P1;durP2;ratioP2;P2;SDS_P1;SDS_P2;PMS_P1;PMS_P2;Temp;Humidity;BMP_temperature;BMP_pressure;BME280_temperature;BME280_humidity;BME280_pressure;Samples;Min_cycle;Max_cycle;Signal;HPM_P1;HPM_P2
2022/11/14 00:02:00;;;;;;;0.47;0.47;;;;;;;7.03;100.00;100628.09;5049973;28;20209;-63
2022/11/14 00:04:27;;;;;;;0.70;0.70;;;;;;;7.04;100.00;100615.38;5050346;28;20200;-63
2022/11/14 00:06:54;;;;;;;0.90;0.90;;;;;;;7.13;100.00;100625.59;5050538;28;20204;-64
2022/11/14 00:09:26;;;;;;;0.60;0.60;;;;;;;7.18;100.00;100623.03;5049586;28;20745;-64
2022/11/14 00:11:53;;;;;;;0.63;0.63;;;;;;;7.21;100.00;100608.59;5049040;28;20211;-63
2022/11/14 00:14:20;;;;;;;2.53;0.80;;;;;;;7.24;100.00;100611.16;5049200;28;20201;-64
2022/11/14 00:16:47;;;;;;;0.87;0.87;;;;;;;7.26;100.00;100600.97;5049953;28;20719;-63
2022/11/14 00:19:14;;;;;;;0.57;0.57;;;;;;;7.29;100.00;100606.94;5050219;28;20635;-64
2022/11/14 00:21:41;;;;;;;0.60;0.60;;;;;;;7.31;100.00;100604.38;5050285;28;20192;-63
2022/11/14 00:24:08;;;;;;;0.50;0.50;;;;;;;7.28;100.00;100605.22;5050096;28;20208;-63
2022/11/14 00:26:36;;;;;;;0.80;0.80;;;;;;;7.25;100.00;100601.81;5050233;28;20201;-63
2022/11/14 00:29:03;;;;;;;0.60;0.60;;;;;;;7.19;100.00;100599.25;5053862;28;20212;-63
2022/11/14 00:31:30;;;;;;;1.70;1.17;;;;;;;7.17;100.00;100599.22;5053469;28;20265;-63
2022/11/14 00:33:56;;;;;;;0.80;0.80;;;;;;;7.16;100.00;100600.09;5052901;28;20205;-63
2022/11/14 00:36:23;;;;;;;0.50;0.50;;;;;;;7.11;100.00;100606.03;5053511;28;20222;-64
2022/11/14 00:38:52;;;;;;;0.50;0.50;;;;;;;7.08;100.00;100601.75;5053940;28;20204;-63
2022/11/14 00:41:19;;;;;;;0.77;0.77;;;;;;;7.09;100.00;100603.47;5053302;28;20219;-63
2022/11/14 00:43:47;;;;;;;0.50;0.50;;;;;;;6.97;100.00;100588.16;5053860;28;20208;-64
2022/11/14 00:46:14;;;;;;;1.13;1.13;;;;;;;6.98;100.00;100594.94;5053729;28;20192;-63
2022/11/14 00:48:41;;;;;;;0.50;0.50;;;;;;;6.92;100.00;100579.63;5053195;28;20242;-63
2022/11/14 00:51:08;;;;;;;0.60;0.60;;;;;;;7.04;100.00;100599.22;5053391;28;20200;-64
2022/11/14 00:53:36;;;;;;;0.60;0.60;;;;;;;6.90;100.00;100560.94;5053232;28;20197;-63
2022/11/14 00:56:03;;;;;;;0.77;0.77;;;;;;;7.02;100.00;100589.00;5053306;28;20193;-63
2022/11/14 00:58:30;;;;;;;0.40;0.40;;;;;;;6.96;100.00;100583.03;5052954;28;20207;-63
2022/11/14 01:00:58;;;;;;;0.50;0.50;;;;;;;6.92;100.00;100582.16;5053538;28;20553;-63
2022/11/14 01:03:25;;;;;;;0.60;0.60;;;;;;;6.93;100.00;100580.47;5052922;28;20255;-64
2022/11/14 01:05:52;;;;;;;0.60;0.60;;;;;;;6.88;100.00;100577.94;5053494;28;20197;-64
2022/11/14 01:08:19;;;;;;;0.70;0.70;;;;;;;6.84;100.00;100563.47;5053319;28;20688;-64
2022/11/14 01:10:48;;;;;;;0.60;0.60;;;;;;;6.91;100.00;100577.94;5050896;28;20258;-63
2022/11/14 01:13:16;;;;;;;0.60;0.60;;;;;;;6.90;100.00;100576.22;5052368;28;20258;-63
2022/11/14 01:15:45;;;;;;;0.60;0.60;;;;;;;6.91;100.00;100572.84;5052399;28;20677;-63
2022/11/14 01:18:17;;;;;;;0.50;0.50;;;;;;;6.95;100.00;100571.97;5052947;28;20693;-63
2022/11/14 01:20:47;;;;;;;0.70;0.70;;;;;;;6.94;100.00;100572.00;5052687;28;20234;-64
2022/11/14 01:23:16;;;;;;;0.50;0.50;;;;;;;6.93;100.00;100563.47;5050432;28;20200;-64
2022/11/14 01:25:43;;;;;;;0.60;0.60;;;;;;;6.94;100.00;100570.28;5052424;28;20649;-63
2022/11/14 01:28:14;;;;;;;0.60;0.60;;;;;;;6.90;100.00;100558.38;5053040;28;20565;-63
2022/11/14 01:30:41;;;;;;;0.60;0.60;;;;;;;6.88;100.00;100562.63;5052656;28;20684;-64
2022/11/14 01:33:08;;;;;;;0.67;0.67;;;;;;;6.85;100.00;100554.94;5052648;28;20201;-63
2022/11/14 01:35:38;;;;;;;0.50;0.50;;;;;;;6.70;100.00;100543.00;5052713;28;20197;-63
2022/11/14 01:38:05;;;;;;;0.60;0.60;;;;;;;6.79;100.00;100557.47;5051327;28;20205;-63
2022/11/14 01:40:33;;;;;;;0.70;0.70;;;;;;;6.78;100.00;100554.09;5052369;28;20208;-63
2022/11/14 01:43:25;;;;;;;0.50;0.50;;;;;;;6.79;100.00;100552.38;5052414;28;20258;-64
2022/11/14 01:45:55;;;;;;;0.80;0.80;;;;;;;6.74;100.00;100544.72;5037859;28;20212;-64
2022/11/14 01:48:26;;;;;;;0.60;0.60;;;;;;;6.79;100.00;100558.34;5052354;28;20219;-63
2022/11/14 01:50:59;;;;;;;0.50;0.50;;;;;;;6.74;100.00;100554.06;5052480;28;20546;-64
2022/11/14 01:53:26;;;;;;;0.70;0.70;;;;;;;6.75;100.00;100550.69;5052269;28;20212;-63
2022/11/14 01:55:56;;;;;;;0.60;0.60;;;;;;;6.73;100.00;100547.25;5052177;28;20598;-63
2022/11/14 01:58:23;;;;;;;1.03;1.03;;;;;;;6.66;100.00;100541.28;5052030;28;20204;-63
2022/11/14 02:00:50;;;;;;;0.90;0.90;;;;;;;6.68;100.00;100543.84;5052354;28;20203;-63
2022/11/14 02:03:19;;;;;;;0.60;0.60;;;;;;;6.66;100.00;100550.63;5050854;28;20233;-63
2022/11/14 02:05:47;;;;;;;0.70;0.70;;;;;;;6.62;100.00;100556.59;5052201;28;20204;-63
2022/11/14 02:08:17;;;;;;;0.73;0.73;;;;;;;6.54;100.00;100560.78;5051288;28;20275;-63
2022/11/14 02:10:43;;;;;;;0.50;0.50;;;;;;;6.50;100.00;100543.75;5051526;28;20211;-63
2022/11/14 02:13:10;;;;;;;0.50;0.50;;;;;;;6.45;100.00;100550.53;5051944;28;20205;-64
2022/11/14 02:15:37;;;;;;;0.80;0.80;;;;;;;6.43;100.00;100542.88;5052130;28;20204;-63
2022/11/14 02:18:04;;;;;;;0.50;0.50;;;;;;;6.39;100.00;100536.09;5052152;28;20197;-63
2022/11/14 02:20:36;;;;;;;0.57;0.57;;;;;;;6.38;100.00;100533.53;5051865;28;20196;-63
2022/11/14 02:23:03;;;;;;;0.47;0.47;;;;;;;6.27;100.00;100523.28;5047996;28;20660;-63
2022/11/14 02:25:30;;;;;;;0.50;0.50;;;;;;;6.34;100.00;100533.50;5051763;28;20610;-63
2022/11/14 02:28:00;;;;;;;0.50;0.50;;;;;;;6.34;100.00;100533.50;5051900;28;20600;-63
2022/11/14 02:30:27;;;;;;;0.63;0.63;;;;;;;6.32;100.00;100539.44;5050817;28;20581;-63
2022/11/14 02:32:53;;;;;;;0.53;0.53;;;;;;;6.27;100.00;100534.31;5051857;28;20677;-63
2022/11/14 02:35:20;;;;;;;0.67;0.67;;;;;;;6.24;100.00;100531.75;5051356;28;20209;-64
2022/11/14 02:37:48;;;;;;;0.80;0.80;;;;;;;6.24;100.00;100526.66;5051649;28;20201;-63
2022/11/14 02:40:15;;;;;;;0.40;0.40;;;;;;;6.20;100.00;100519.84;5051623;28;20200;-63
2022/11/14 02:42:42;;;;;;;0.60;0.60;;;;;;;6.19;100.00;100533.44;5051785;28;20204;-63
2022/11/14 02:45:10;;;;;;;0.60;0.60;;;;;;;6.15;100.00;100525.75;5051755;28;20338;-63
2022/11/14 02:47:37;;;;;;;0.57;0.57;;;;;;;6.14;100.00;100529.19;5051509;28;20569;-66
2022/11/14 02:50:04;;;;;;;0.70;0.70;;;;;;;5.87;100.00;100486.59;5050708;28;20221;-63
2022/11/14 02:52:31;;;;;;;0.60;0.60;;;;;;;6.09;100.00;100526.59;5051365;28;20557;-63
2022/11/14 02:54:59;;;;;;;0.50;0.50;;;;;;;6.11;100.00;100530.00;5051231;28;20584;-63
2022/11/14 02:57:26;;;;;;;0.80;0.80;;;;;;;5.98;100.00;100505.31;5051451;28;20750;-64
2022/11/14 02:59:53;;;;;;;0.60;0.60;;;;;;;6.02;100.00;100517.22;5051330;28;20220;-63
2022/11/14 03:02:20;;;;;;;0.60;0.60;;;;;;;6.05;100.00;100524.88;5051698;28;20677;-63
2022/11/14 03:04:46;;;;;;;0.60;0.60;;;;;;;6.01;100.00;100533.31;5050667;28;20259;-63
2022/11/14 03:07:13;;;;;;;0.63;0.63;;;;;;;5.98;100.00;100528.22;5050784;28;20205;-64
2022/11/14 03:09:40;;;;;;;0.50;0.50;;;;;;;5.99;100.00;100529.06;5050827;28;20259;-63
2022/11/14 03:12:08;;;;;;;0.60;0.60;;;;;;;5.87;100.00;100534.94;5045770;28;20669;-63
2022/11/14 03:14:35;;;;;;;0.40;0.40;;;;;;;5.85;100.00;100535.75;5051167;28;20208;-64
2022/11/14 03:17:02;;;;;;;0.60;0.60;;;;;;;5.72;100.00;100529.69;5051241;28;20227;-64
2022/11/14 03:19:29;;;;;;;0.67;0.67;;;;;;;5.64;100.00;100531.34;5051194;28;20196;-63
2022/11/14 03:21:55;;;;;;;0.50;0.50;;;;;;;5.57;100.00;100539.75;5050922;28;20205;-63
2022/11/14 03:24:22;;;;;;;0.83;0.83;;;;;;;5.50;100.00;100538.84;5050919;28;20193;-63
2022/11/14 03:26:49;;;;;;;1.13;1.13;;;;;;;5.43;100.00;100532.00;5050836;28;20200;-63
2022/11/14 03:29:17;;;;;;;0.70;0.70;;;;;;;5.43;100.00;100532.00;5045591;28;20696;-63
2022/11/14 03:31:44;;;;;;;0.70;0.70;;;;;;;5.45;100.00;100534.56;5050923;28;20208;-64
2022/11/14 03:34:11;;;;;;;0.60;0.60;;;;;;;5.45;100.00;100537.13;5051359;28;20691;-66
2022/11/14 03:36:38;;;;;;;1.20;1.10;;;;;;;5.46;100.00;100536.28;5050974;28;20208;-64
2022/11/14 03:39:06;;;;;;;0.70;0.70;;;;;;;5.42;100.00;100537.09;5050392;28;20200;-63
2022/11/14 03:41:33;;;;;;;0.50;0.50;;;;;;;5.37;100.00;100534.50;5050974;28;20197;-64
2022/11/14 03:43:59;;;;;;;0.70;0.70;;;;;;;5.34;100.00;100541.25;5050941;28;20278;-64
2022/11/14 03:46:28;;;;;;;0.80;0.80;;;;;;;5.32;100.00;100527.66;5051188;28;20260;-64
2022/11/14 03:48:54;;;;;;;0.70;0.70;;;;;;;5.29;100.00;100534.44;5050803;28;20215;-64
2022/11/14 03:51:21;;;;;;;1.20;1.20;;;;;;;5.28;100.00;100537.81;5051125;28;20196;-64
2022/11/14 03:53:48;;;;;;;0.60;0.60;;;;;;;5.33;100.00;100529.38;5050819;28;20196;-64
2022/11/14 03:56:15;;;;;;;1.30;1.30;;;;;;;5.33;100.00;100535.31;5051064;28;20197;-64
2022/11/14 03:58:42;;;;;;;0.60;0.60;;;;;;;5.31;100.00;100526.81;5050679;28;20197;-64
2022/11/14 04:01:09;;;;;;;12.07;1.27;;;;;;;5.25;100.00;100508.97;5052122;28;20220;-63
2022/11/14 04:03:37;;;;;;;0.50;0.50;;;;;;;5.39;100.00;100529.44;5054697;28;20685;-64
2022/11/14 04:06:04;;;;;;;0.70;0.70;;;;;;;5.40;100.00;100531.13;5054090;28;20688;-64
2022/11/14 04:08:31;;;;;;;0.53;0.53;;;;;;;5.37;100.00;100526.88;5054694;28;20217;-63
2022/11/14 04:10:58;;;;;;;0.60;0.60;;;;;;;5.30;100.00;100515.78;5054498;28;20197;-63
2022/11/14 04:13:24;;;;;;;0.60;0.60;;;;;;;5.35;100.00;100522.63;5054313;28;20204;-64
2022/11/14 04:15:55;;;;;;;0.60;0.60;;;;;;;5.37;100.00;100531.09;5054502;28;20224;-64
2022/11/14 04:18:22;;;;;;;0.60;0.60;;;;;;;5.40;100.00;100526.03;5054420;28;20251;-63
2022/11/14 04:20:51;;;;;;;0.87;0.87;;;;;;;5.42;100.00;100525.22;5054526;28;20197;-63
2022/11/14 04:23:18;;;;;;;0.57;0.57;;;;;;;5.47;100.00;100527.78;5054567;28;20204;-64
2022/11/14 04:25:45;;;;;;;0.40;0.40;;;;;;;5.47;100.00;100527.78;5051753;28;20254;-63
2022/11/14 04:28:12;;;;;;;0.60;0.60;;;;;;;5.27;100.00;100515.75;5054220;28;20208;-64
2022/11/14 04:30:39;;;;;;;0.63;0.63;;;;;;;5.39;100.00;100535.38;5054179;28;20220;-63
2022/11/14 04:33:06;;;;;;;0.60;0.60;;;;;;;5.27;100.00;100515.75;5054332;28;20196;-63
2022/11/14 04:35:33;;;;;;;0.50;0.50;;;;;;;5.36;100.00;100539.59;5054046;28;20196;-63
2022/11/14 04:38:01;;;;;;;0.70;0.70;;;;;;;5.39;100.00;100529.44;5054282;28;20204;-64
2022/11/14 04:40:28;;;;;;;0.50;0.50;;;;;;;5.34;100.00;100525.97;5053786;28;20208;-64
2022/11/14 04:42:55;;;;;;;0.60;0.60;;;;;;;5.34;100.00;100523.44;5053948;28;20201;-64
2022/11/14 04:45:21;;;;;;;0.57;0.57;;;;;;;5.30;100.00;100525.97;5054135;28;20208;-63
2022/11/14 04:47:48;;;;;;;0.60;0.60;;;;;;;5.33;100.00;100527.69;5053672;28;20212;-63
2022/11/14 04:50:15;;;;;;;0.40;0.40;;;;;;;5.33;100.00;100524.31;5053570;28;20263;-64
2022/11/14 04:52:42;;;;;;;0.57;0.57;;;;;;;5.32;100.00;100532.75;5054175;28;20213;-63
2022/11/14 04:55:10;;;;;;;0.70;0.70;;;;;;;5.34;100.00;100541.25;5053845;28;20206;-63
2022/11/14 04:57:37;;;;;;;0.53;0.53;;;;;;;5.35;100.00;100540.41;5053594;28;20644;-64
2022/11/14 05:00:07;;;;;;;0.50;0.50;;;;;;;5.29;100.00;100542.06;5053911;28;20196;-64
2022/11/14 05:02:34;;;;;;;0.50;0.50;;;;;;;5.31;100.00;100547.16;5051761;28;20277;-64
2022/11/14 05:05:00;;;;;;;0.70;0.70;;;;;;;5.24;100.00;100533.53;5053608;28;20197;-64
2022/11/14 05:07:27;;;;;;;0.50;0.50;;;;;;;5.27;100.00;100545.41;5053859;28;20254;-63
2022/11/14 05:09:54;;;;;;;0.50;0.50;;;;;;;5.26;100.00;100544.59;5053369;28;20276;-64
2022/11/14 05:12:22;;;;;;;0.70;0.70;;;;;;;5.26;100.00;100557.31;5052578;28;20252;-64
2022/11/14 05:14:49;;;;;;;0.50;0.50;;;;;;;5.27;100.00;100564.06;5053438;28;20193;-63
2022/11/14 05:17:16;;;;;;;0.50;0.50;;;;;;;5.24;100.00;100563.19;5053495;28;20235;-63
2022/11/14 05:19:42;;;;;;;0.87;0.87;;;;;;;5.13;100.00;100558.00;5053335;28;20590;-64
2022/11/14 05:22:09;;;;;;;0.60;0.60;;;;;;;5.08;100.00;100567.25;5053342;28;20193;-63
2022/11/14 05:24:36;;;;;;;1.20;1.20;;;;;;;5.08;100.00;100564.72;5053268;28;20208;-64
2022/11/14 05:27:03;;;;;;;0.87;0.87;;;;;;;5.10;100.00;100565.59;5053038;28;20204;-63
2022/11/14 05:29:31;;;;;;;0.90;0.90;;;;;;;5.11;100.00;100569.84;5053216;28;20228;-64
2022/11/14 05:31:58;;;;;;;0.60;0.60;;;;;;;5.15;100.00;100581.75;5052940;28;20216;-64
2022/11/14 05:34:25;;;;;;;0.70;0.70;;;;;;;5.16;100.00;100574.97;5053133;28;20196;-64
2022/11/14 05:36:51;;;;;;;0.80;0.80;;;;;;;5.08;100.00;100559.63;5051815;28;20585;-63
2022/11/14 05:39:18;;;;;;;0.70;0.70;;;;;;;5.16;100.00;100570.75;5053028;28;20624;-64
2022/11/14 05:41:45;;;;;;;0.80;0.80;;;;;;;5.13;100.00;100573.25;5051706;28;20577;-64
2022/11/14 05:44:14;;;;;;;0.93;0.77;;;;;;;5.14;100.00;100585.13;5052365;28;20205;-64
2022/11/14 05:46:42;;;;;;;2.07;1.70;;;;;;;5.15;100.00;100576.66;5052206;28;20665;-63
2022/11/14 05:49:09;;;;;;;0.67;0.67;;;;;;;5.20;100.00;100585.16;5051278;28;20204;-63
2022/11/14 05:51:35;;;;;;;0.60;0.60;;;;;;;5.21;100.00;100574.19;5052661;28;20205;-63
2022/11/14 05:54:02;;;;;;;0.60;0.60;;;;;;;5.29;100.00;100585.28;5052584;28;20250;-63
2022/11/14 05:56:29;;;;;;;0.60;0.60;;;;;;;5.26;100.00;100585.25;5052987;28;20201;-64
2022/11/14 05:58:56;;;;;;;0.70;0.70;;;;;;;5.30;100.00;100581.88;5052013;28;20618;-64
2022/11/14 06:01:22;;;;;;;0.57;0.57;;;;;;;5.33;100.00;100585.31;5050201;28;20207;-63
2022/11/14 06:03:51;;;;;;;0.77;0.77;;;;;;;5.33;100.00;100585.31;5051704;28;20208;-63
2022/11/14 06:06:20;;;;;;;0.60;0.60;;;;;;;5.33;100.00;100585.31;5052463;28;20201;-64
2022/11/14 06:08:47;;;;;;;0.60;0.60;;;;;;;5.35;100.00;100587.03;5052466;28;20199;-64
2022/11/14 06:11:17;;;;;;;0.60;0.60;;;;;;;5.34;100.00;100581.91;5051885;28;20220;-64
2022/11/14 06:13:44;;;;;;;0.70;0.70;;;;;;;5.39;100.00;100580.28;5048415;28;20231;-64
2022/11/14 06:16:13;;;;;;;0.60;0.60;;;;;;;5.46;100.00;100579.50;5052191;28;20603;-64
2022/11/14 06:18:40;;;;;;;0.60;0.60;;;;;;;5.46;100.00;100576.97;5051478;28;20197;-64
2022/11/14 06:21:11;;;;;;;0.87;0.87;;;;;;;5.46;100.00;100582.06;5048564;28;20700;-63
2022/11/14 06:23:38;;;;;;;0.80;0.80;;;;;;;5.44;100.00;100588.81;5051273;28;20201;-63
2022/11/14 06:26:12;;;;;;;0.50;0.50;;;;;;;5.49;100.00;100588.03;5051307;28;20208;-64
2022/11/14 06:28:38;;;;;;;0.60;0.60;;;;;;;5.54;100.00;100588.06;5051433;28;20205;-63
2022/11/14 06:31:06;;;;;;;0.50;0.50;;;;;;;5.57;100.00;100590.63;5051363;28;20213;-64
2022/11/14 06:33:35;;;;;;;0.80;0.80;;;;;;;5.52;100.00;100589.75;5049250;28;20685;-62
2022/11/14 06:36:04;;;;;;;0.73;0.73;;;;;;;5.54;100.00;100590.59;5051143;28;20201;-61
2022/11/14 06:38:34;;;;;;;0.60;0.60;;;;;;;5.59;100.00;100584.69;5050796;28;20208;-60
2022/11/14 06:41:04;;;;;;;0.50;0.50;;;;;;;5.64;100.00;100583.06;5050162;28;20189;-61
2022/11/14 06:43:34;;;;;;;0.90;0.90;;;;;;;5.66;100.00;100583.91;5049480;28;20204;-61
2022/11/14 06:46:02;;;;;;;0.50;0.50;;;;;;;5.70;100.00;100582.25;5046112;28;20197;-66
2022/11/14 06:48:29;;;;;;;0.60;0.60;;;;;;;5.66;100.00;100583.06;5049816;28;20200;-62
2022/11/14 06:50:57;;;;;;;0.60;0.60;;;;;;;5.56;100.00;100584.69;5049155;28;20223;-62
2022/11/14 06:53:25;;;;;;;0.80;0.80;;;;;;;5.56;100.00;100591.44;5046314;28;20276;-65
2022/11/14 06:55:58;;;;;;;0.70;0.70;;;;;;;5.59;100.00;100583.88;5047843;28;20209;-64
2022/11/14 06:58:26;;;;;;;0.50;0.50;;;;;;;5.47;100.00;100559.16;5049183;28;20661;-64
2022/11/14 07:00:53;;;;;;;0.67;0.67;;;;;;;5.62;100.00;100579.63;5046088;28;20200;-64
2022/11/14 07:03:20;;;;;;;0.53;0.53;;;;;;;5.58;100.00;100583.03;5049531;28;20255;-65
2022/11/14 07:05:47;;;;;;;0.67;0.67;;;;;;;5.57;100.00;100580.44;5050801;28;20661;-64
2022/11/14 07:08:13;;;;;;;0.70;0.70;;;;;;;5.57;100.00;100580.44;5048795;28;20660;-65
2022/11/14 07:10:40;;;;;;;0.70;0.70;;;;;;;5.63;100.00;100580.50;5049967;28;20290;-64
2022/11/14 07:13:10;;;;;;;0.70;0.70;;;;;;;5.68;100.00;100583.94;5049767;28;20219;-64
2022/11/14 07:15:37;;;;;;;0.60;0.60;;;;;;;5.55;100.00;100549.06;5049331;28;20208;-64
2022/11/14 07:18:04;;;;;;;0.63;0.63;;;;;;;5.76;100.00;100582.31;5050590;28;20254;-64
2022/11/14 07:20:31;;;;;;;0.60;0.60;;;;;;;5.85;100.00;100587.47;5048919;28;20212;-64
2022/11/14 07:22:57;;;;;;;0.50;0.50;;;;;;;5.96;100.00;100588.44;5050084;28;20677;-64
2022/11/14 07:25:24;;;;;;;0.77;0.77;;;;;;;6.03;100.00;100590.19;5049556;28;20224;-64
2022/11/14 07:27:51;;;;;;;0.70;0.70;;;;;;;6.10;100.00;100578.38;5050005;28;20283;-65
2022/11/14 07:30:19;;;;;;;0.70;0.70;;;;;;;6.10;100.00;100578.38;5050455;28;20651;-64
2022/11/14 07:32:46;;;;;;;0.70;0.70;;;;;;;6.16;100.00;100584.34;5050153;28;20224;-65
2022/11/14 07:35:13;;;;;;;0.50;0.50;;;;;;;6.28;100.00;100569.13;5051290;28;20204;-64
2022/11/14 07:37:40;;;;;;;0.70;0.70;;;;;;;6.28;100.00;100556.41;5055635;28;20208;-65
2022/11/14 07:40:08;;;;;;;0.67;0.67;;;;;;;6.48;100.00;100565.84;5056836;28;20279;-64
2022/11/14 07:42:36;;;;;;;0.53;0.53;;;;;;;6.59;100.00;100566.75;5056091;28;20625;-64
2022/11/14 07:45:03;;;;;;;0.60;0.60;;;;;;;6.48;100.00;100560.75;5056950;28;20204;-66
2022/11/14 07:47:31;;;;;;;0.70;0.70;;;;;;;6.57;100.00;100569.28;5056921;28;20205;-65
2022/11/14 07:49:57;;;;;;;0.40;0.40;;;;;;;6.61;100.00;100565.06;5056942;28;20227;-66
2022/11/14 07:52:24;;;;;;;0.70;0.70;;;;;;;6.74;100.00;100562.56;5056215;28;20204;-65
2022/11/14 07:54:51;;;;;;;0.60;0.60;;;;;;;6.86;100.00;100559.19;5056745;28;20222;-67
2022/11/14 07:57:18;;;;;;;0.60;0.60;;;;;;;6.92;100.00;100543.94;5056822;28;20201;-67
2022/11/14 07:59:45;;;;;;;0.60;0.60;;;;;;;6.97;100.00;100549.91;5057450;28;20216;-67
2022/11/14 08:02:14;;;;;;;0.70;0.70;;;;;;;7.04;100.00;100548.22;5056985;28;20692;-66
2022/11/14 08:04:42;;;;;;;0.60;0.60;;;;;;;7.10;100.00;100549.09;5056387;28;20208;-67
2022/11/14 08:07:09;;;;;;;0.90;0.90;;;;;;;7.21;100.00;100552.50;5056187;28;20197;-67
2022/11/14 08:09:36;;;;;;;0.60;0.60;;;;;;;7.28;100.00;100549.13;5056892;28;20205;-67
2022/11/14 08:12:03;;;;;;;0.50;0.50;;;;;;;7.33;100.00;100549.94;5057186;28;20208;-66
2022/11/14 08:14:29;;;;;;;0.60;0.60;;;;;;;7.39;100.00;100542.34;5056408;28;20200;-67
2022/11/14 08:16:56;;;;;;;0.80;0.80;;;;;;;7.40;100.00;100538.91;5056173;28;20224;-67
2022/11/14 08:19:23;;;;;;;0.50;0.50;;;;;;;7.66;100.00;100559.34;5056261;28;20255;-67
2022/11/14 08:21:51;;;;;;;0.60;0.60;;;;;;;7.80;100.00;100552.53;5058335;28;20192;-68
2022/11/14 08:24:18;;;;;;;0.70;0.70;;;;;;;7.87;100.00;100555.94;5055861;28;20197;-67
2022/11/14 08:26:46;;;;;;;0.70;0.70;;;;;;;7.78;100.00;100550.84;5055826;28;20223;-68
2022/11/14 08:29:13;;;;;;;0.70;0.70;;;;;;;7.77;100.00;100552.53;5056461;28;20554;-65
2022/11/14 08:31:39;;;;;;;0.93;0.93;;;;;;;7.86;100.00;100554.22;5056334;28;20219;-67
2022/11/14 08:34:06;;;;;;;0.70;0.70;;;;;;;7.86;100.00;100549.13;5053056;28;20250;-65
2022/11/14 08:36:33;;;;;;;0.60;0.60;;;;;;;8.10;100.00;100558.47;5056419;28;20200;-66
2022/11/14 08:39:01;;;;;;;0.47;0.47;;;;;;;8.12;100.00;100557.59;5056633;28;20259;-66
2022/11/14 08:41:28;;;;;;;0.50;0.50;;;;;;;8.22;100.00;100555.88;5056715;28;20630;-66
2022/11/14 08:43:55;;;;;;;0.83;0.83;;;;;;;8.34;100.00;100556.72;5057192;28;20216;-65
2022/11/14 08:46:21;;;;;;;1.07;1.07;;;;;;;8.42;100.00;100555.03;5054760;28;20204;-66
2022/11/14 08:48:49;;;;;;;0.57;0.57;;;;;;;8.48;100.00;100558.41;5051985;28;20205;-65
2022/11/14 08:51:22;;;;;;;0.40;0.40;;;;;;;8.53;100.00;100551.56;5052158;28;20219;-69
2022/11/14 08:53:51;;;;;;;0.50;0.50;;;;;;;8.58;100.00;100544.72;5050434;28;20677;-65
2022/11/14 08:56:19;;;;;;;1.07;1.07;;;;;;;8.67;100.00;100534.47;5052382;28;20694;-66
2022/11/14 08:58:46;;;;;;;0.60;0.60;;;;;;;8.93;100.00;100535.19;5052554;28;20201;-66
2022/11/14 09:01:12;;;;;;;1.00;1.00;;;;;;;9.13;100.00;100537.63;5052515;28;20201;-66
2022/11/14 09:03:39;;;;;;;1.13;1.13;;;;;;;9.33;100.00;100531.53;5053003;28;20207;-66
2022/11/14 09:06:06;;;;;;;0.80;0.80;;;;;;;9.47;100.00;100533.97;5052254;28;20573;-65
2022/11/14 09:08:33;;;;;;;0.50;0.50;;;;;;;9.57;100.00;100535.59;5051738;28;20208;-66
2022/11/14 09:11:01;;;;;;;0.53;0.53;;;;;;;9.75;100.00;100529.50;5052366;28;20274;-67
2022/11/14 09:13:32;;;;;;;0.60;0.60;;;;;;;9.94;100.00;100526.75;5053228;28;20262;-66
2022/11/14 09:15:59;;;;;;;0.63;0.63;;;;;;;9.94;100.00;100531.03;5052869;28;20224;-65
2022/11/14 09:18:25;;;;;;;0.60;0.60;;;;;;;9.99;100.00;100527.53;5051803;28;20262;-66
2022/11/14 09:20:52;;;;;;;0.50;0.50;;;;;;;10.05;100.00;100526.63;5051245;28;20207;-66
2022/11/14 09:23:19;;;;;;;0.53;0.53;;;;;;;10.22;100.00;100522.22;5049980;28;20215;-66
2022/11/14 09:25:46;;;;;;;0.47;0.47;;;;;;;10.32;100.00;100516.13;5051427;28;20212;-66
2022/11/14 09:28:13;;;;;;;0.40;0.40;;;;;;;10.45;100.00;100517.69;5050138;28;20208;-66
2022/11/14 09:30:41;;;;;;;0.40;0.40;;;;;;;10.61;100.00;100510.66;5051331;28;20231;-66
2022/11/14 09:33:08;;;;;;;0.57;0.57;;;;;;;10.67;100.00;100512.28;5051662;28;20258;-66
2022/11/14 09:35:36;;;;;;;0.60;0.60;;;;;;;10.78;100.00;100502.75;5051568;28;20573;-66
2022/11/14 09:38:05;;;;;;;0.73;0.73;;;;;;;10.96;100.00;100507.59;5051435;28;20303;-65
2022/11/14 09:40:43;;;;;;;1.10;1.10;;;;;;;11.11;100.00;100497.16;5050918;28;20585;-65
2022/11/14 09:43:26;;;;;;;0.40;0.40;;;;;;;11.24;100.00;100497.81;5051211;28;20637;-66
2022/11/14 09:45:54;;;;;;;0.60;0.60;;;;;;;11.38;100.00;100480.44;5047771;28;20209;-67
2022/11/14 09:48:24;;;;;;;0.80;0.80;;;;;;;11.43;100.00;100478.66;5048795;28;20665;-65
2022/11/14 09:51:06;;;;;;;0.60;0.60;;;;;;;11.59;100.00;100485.25;5047024;28;20684;-64
2022/11/14 09:53:37;;;;;;;0.50;0.50;;;;;;;11.60;100.00;100486.91;5049622;28;20235;-65
2022/11/14 09:56:04;;;;;;;0.50;0.50;;;;;;;11.64;100.00;100482.56;5050513;28;20197;-65
2022/11/14 09:58:31;;;;;;;0.50;0.50;;;;;;;11.80;100.00;100484.03;5050430;28;20201;-65
2022/11/14 10:01:05;;;;;;;0.70;0.70;;;;;;;11.77;100.00;100478.94;5049025;28;20220;-65
2022/11/14 10:03:46;;;;;;;1.23;1.23;;;;;;;11.87;100.00;100472.78;5049343;28;20263;-64
2022/11/14 10:06:22;;;;;;;0.80;0.80;;;;;;;11.98;100.00;100473.44;5050465;28;20208;-65
2022/11/14 10:09:03;;;;;;;0.47;0.47;;;;;;;12.04;100.00;100466.47;5048385;28;20307;-65
2022/11/14 10:11:35;;;;;;;0.53;0.53;;;;;;;12.06;100.00;100461.28;5047099;28;20224;-65
2022/11/14 10:14:49;;;;;;;0.80;0.80;;;;;;;11.98;100.00;100463.16;5049194;28;20204;-65
2022/11/14 10:17:35;;;;;;;0.67;0.67;;;;;;;12.04;100.00;100448.47;5007464;28;20262;-65
2022/11/14 10:20:17;;;;;;;0.40;0.40;;;;;;;12.13;100.00;100442.28;5050973;28;20196;-65
2022/11/14 10:22:57;;;;;;;0.70;0.70;;;;;;;12.17;100.00;100438.78;5050866;28;20205;-65
2022/11/14 10:25:27;;;;;;;0.50;0.50;;;;;;;12.07;100.00;100419.28;5049592;28;20204;-67
2022/11/14 10:28:07;;;;;;;0.40;0.40;;;;;;;12.28;100.00;100436.84;5049886;28;20885;-65
2022/11/14 10:30:40;;;;;;;0.67;0.67;;;;;;;12.24;100.00;100426.66;5049653;28;20730;-66
2022/11/14 10:33:27;;;;;;;0.47;0.47;;;;;;;12.31;100.00;100431.63;5050189;28;20676;-65
2022/11/14 10:36:00;;;;;;;0.60;0.60;;;;;;;12.36;99.82;100431.53;5050689;28;20963;-65
2022/11/14 10:38:32;;;;;;;4.43;1.83;;;;;;;12.37;99.29;100431.53;5045551;28;20220;-66
2022/11/14 10:41:04;;;;;;;0.50;0.50;;;;;;;12.40;100.00;100430.59;5047220;28;20197;-65
2022/11/14 10:43:36;;;;;;;1.00;1.00;;;;;;;12.52;98.85;100425.19;5049232;28;20200;-65
2022/11/14 10:46:08;;;;;;;0.40;0.40;;;;;;;12.54;98.35;100411.41;5046799;28;20209;-65
2022/11/14 10:48:40;;;;;;;0.67;0.67;;;;;;;12.61;99.20;100414.69;5046740;28;20258;-69
2022/11/14 10:51:17;;;;;;;0.67;0.67;;;;;;;12.71;98.48;100410.19;5049532;28;20216;-67
2022/11/14 10:53:51;;;;;;;0.40;0.40;;;;;;;12.74;97.71;100415.25;5048551;28;21814;-65
2022/11/14 10:56:21;;;;;;;0.50;0.50;;;;;;;12.82;97.96;100408.22;5050594;28;20671;-65
2022/11/14 10:58:48;;;;;;;0.50;0.50;;;;;;;12.93;98.38;100406.22;5048848;28;20204;-66
2022/11/14 11:01:36;;;;;;;0.50;0.50;;;;;;;12.95;96.63;100400.19;5051469;28;20192;-66
2022/11/14 11:04:20;;;;;;;0.50;0.50;;;;;;;12.96;95.47;100390.72;5050526;28;20665;-65
2022/11/14 11:06:47;;;;;;;0.60;0.60;;;;;;;13.03;95.32;100405.13;5047924;28;20581;-65
2022/11/14 11:12:02;;;;;;;0.60;0.60;;;;;;;13.23;98.46;100390.09;5049502;28;20228;-64
2022/11/14 11:14:29;;;;;;;0.40;0.40;;;;;;;13.32;97.61;100395.00;5051089;28;20204;-64
2022/11/14 11:17:18;;;;;;;0.83;0.83;;;;;;;13.39;98.32;100386.22;5047823;28;20228;-65
2022/11/14 11:19:47;;;;;;;1.23;1.23;;;;;;;13.43;97.17;100387.84;5050477;28;20196;-65
2022/11/14 11:22:36;;;;;;;0.50;0.50;;;;;;;13.40;95.50;100372.47;5050857;28;20288;-67
2022/11/14 11:25:03;;;;;;;0.73;0.73;;;;;;;13.35;95.85;100368.31;5048637;28;20200;-64
2022/11/14 11:27:30;;;;;;;0.70;0.70;;;;;;;13.50;96.90;100371.34;5046807;28;20232;-65
2022/11/14 11:30:08;;;;;;;0.50;0.50;;;;;;;13.58;97.37;100364.25;5048972;28;20228;-64
2022/11/14 11:32:35;;;;;;;0.60;0.60;;;;;;;13.60;96.59;100359.06;5049252;28;20642;-66
2022/11/14 11:35:11;;;;;;;0.50;0.50;;;;;;;13.74;96.92;100361.25;5050502;28;20213;-66